Time;durP1;ratioP1;P1;durP2;ratioP2;P2;SDS_P1;SDS_P2;PMS_P1;PMS_P2;Temp;Humidity;BMP_temperature;BMP_pressure;BME280_temperature;BME280_humidity;BME280_pressure;Samples;Min_cycle;Max_cycle;Signal;HPM_P1;HPM_P2
2022/04/10 00:01:41;;;;;;;16.52;12.20;;;22.70;99.90;;;;;;5031276;28;20038;-55
2022/04/10 00:04:06;;;;;;;17.67;12.60;;;22.70;99.90;;;;;;5031065;28;20052;-54
2022/04/10 00:06:33;;;;;;;17.70;13.88;;;22.70;99.90;;;;;;5030121;28;20025;-54
2022/04/10 00:08:58;;;;;;;17.92;13.50;;;22.70;99.90;;;;;;5031198;28;20024;-56
2022/04/10 00:11:25;;;;;;;19.00;12.77;;;22.70;99.90;;;;;;5031098;28;20030;-54
2022/04/10 00:13:51;;;;;;;16.77;12.20;;;22.70;99.90;;;;;;5031320;28;20489;-54
2022/04/10 00:16:16;;;;;;;18.38;12.50;;;22.70;99.90;;;;;;5031392;28;20017;-55
2022/04/10 00:18:42;;;;;;;18.95;13.13;;;22.60;99.90;;;;;;5031053;28;20496;-55
2022/04/10 00:21:08;;;;;;;16.10;12.50;;;22.60;99.90;;;;;;5030931;28;20477;-56
2022/04/10 00:23:34;;;;;;;20.13;14.48;;;22.60;99.90;;;;;;5031065;28;20029;-55
2022/04/10 00:26:00;;;;;;;19.70;14.40;;;22.60;99.90;;;;;;5031138;28;20029;-55
2022/04/10 00:28:26;;;;;;;21.10;14.63;;;22.60;99.90;;;;;;5030995;28;20132;-56
2022/04/10 00:30:52;;;;;;;19.35;14.45;;;22.60;99.90;;;;;;5031104;28;20516;-55
2022/04/10 00:33:18;;;;;;;18.25;13.60;;;22.60;99.90;;;;;;5031361;28;20109;-52
2022/04/10 00:35:43;;;;;;;18.73;14.07;;;22.60;99.90;;;;;;5030887;28;20386;-53
2022/04/10 00:38:09;;;;;;;19.55;14.00;;;22.60;99.90;;;;;;5030818;28;20028;-53
2022/04/10 00:40:35;;;;;;;19.63;13.60;;;22.60;99.90;;;;;;5030810;28;20029;-52
2022/04/10 00:43:01;;;;;;;19.27;13.63;;;22.60;99.90;;;;;;5030833;28;20465;-54
2022/04/10 00:45:27;;;;;;;19.50;14.18;;;22.60;99.90;;;;;;5029578;28;20029;-54
2022/04/10 00:47:53;;;;;;;20.95;15.02;;;22.60;99.90;;;;;;5031001;28;20026;-56
2022/04/10 00:50:20;;;;;;;19.33;14.05;;;22.60;99.90;;;;;;5029638;28;20079;-55
2022/04/10 00:52:48;;;;;;;17.05;13.70;;;22.60;99.90;;;;;;5030902;28;20025;-56
2022/04/10 00:55:15;;;;;;;17.92;12.82;;;22.60;99.90;;;;;;5030751;28;20469;-55
2022/04/10 00:57:41;;;;;;;17.83;13.25;;;22.60;99.90;;;;;;5030721;28;20029;-58
2022/04/10 01:00:11;;;;;;;19.02;13.60;;;22.60;99.90;;;;;;5042223;23;20589;-66
2022/04/10 01:02:38;;;;;;;16.95;13.95;;;22.60;99.90;;;;;;5030756;28;20477;-67
2022/04/10 01:05:04;;;;;;;17.02;13.02;;;22.60;99.90;;;;;;5030899;28;20076;-69
2022/04/10 01:07:30;;;;;;;20.23;15.20;;;22.60;99.90;;;;;;5034241;28;20022;-61
2022/04/10 01:09:57;;;;;;;19.08;14.00;;;22.60;99.90;;;;;;5034491;28;20025;-65
2022/04/10 01:12:23;;;;;;;18.25;14.35;;;22.60;99.90;;;;;;5034351;28;20029;-67
2022/04/10 01:14:50;;;;;;;19.52;14.02;;;22.60;99.90;;;;;;5034471;28;20041;-62
2022/04/10 01:17:17;;;;;;;17.73;12.65;;;22.50;99.90;;;;;;5034294;28;20036;-67
2022/04/10 01:19:43;;;;;;;18.30;13.70;;;22.60;99.90;;;;;;5034096;28;20034;-61
2022/04/10 01:22:10;;;;;;;18.13;13.68;;;22.50;99.90;;;;;;5034197;28;20030;-62
2022/04/10 01:24:38;;;;;;;20.00;13.63;;;22.50;99.90;;;;;;5032898;28;20037;-63
2022/04/10 01:27:04;;;;;;;19.20;14.10;;;22.60;99.90;;;;;;5033942;28;20105;-61
2022/04/10 01:29:30;;;;;;;20.60;14.17;;;22.50;99.90;;;;;;5033882;28;20033;-61
2022/04/10 01:31:57;;;;;;;19.05;14.18;;;22.50;99.90;;;;;;5032561;28;20259;-60
2022/04/10 01:34:22;;;;;;;17.60;13.00;;;22.50;99.90;;;;;;5033756;28;20022;-64
2022/04/10 01:36:48;;;;;;;20.13;13.95;;;22.50;99.90;;;;;;5033624;28;20029;-65
2022/04/10 01:39:15;;;;;;;16.58;13.43;;;22.50;99.90;;;;;;5033714;28;20025;-65
2022/04/10 01:41:45;;;;;;;17.73;13.57;;;22.50;99.90;;;;;;5033680;28;20445;-65
2022/04/10 01:44:12;;;;;;;18.63;13.50;;;22.50;99.90;;;;;;5033710;28;20041;-66
2022/04/10 01:46:38;;;;;;;19.10;14.18;;;22.50;99.90;;;;;;5033839;28;20025;-66
2022/04/10 01:49:05;;;;;;;19.48;13.88;;;22.50;99.90;;;;;;5033371;28;20034;-66
2022/04/10 01:51:32;;;;;;;19.40;13.45;;;22.50;99.90;;;;;;5033458;28;20025;-66
2022/04/10 01:53:58;;;;;;;17.65;13.43;;;22.50;99.90;;;;;;5033505;28;20017;-65
2022/04/10 01:56:24;;;;;;;16.92;12.82;;;22.50;99.90;;;;;;5033375;28;20055;-65
2022/04/10 01:58:53;;;;;;;19.20;13.50;;;22.50;99.90;;;;;;5033286;28;20362;-61
2022/04/10 02:01:20;;;;;;;18.17;13.65;;;22.50;99.90;;;;;;5045270;22;20054;-55
2022/04/10 02:03:47;;;;;;;19.90;13.65;;;22.50;99.90;;;;;;5033155;28;20073;-55
2022/04/10 02:06:14;;;;;;;19.45;14.15;;;22.50;99.90;;;;;;5033352;28;20121;-55
2022/04/10 02:08:41;;;;;;;16.98;12.70;;;22.50;99.90;;;;;;5033290;28;20028;-55
2022/04/10 02:11:16;;;;;;;17.60;13.88;;;22.50;99.90;;;;;;5033339;28;20036;-55
2022/04/10 02:13:42;;;;;;;17.52;12.20;;;22.50;99.90;;;;;;5033296;28;20448;-55
2022/04/10 02:16:12;;;;;;;16.73;13.10;;;22.50;99.90;;;;;;5033184;28;20026;-55
2022/04/10 02:18:37;;;;;;;17.75;13.02;;;22.50;99.90;;;;;;5032413;28;20020;-55
2022/04/10 02:21:04;;;;;;;18.23;13.02;;;22.50;99.90;;;;;;5032919;28;20025;-55
2022/04/10 02:23:30;;;;;;;19.70;13.02;;;22.50;99.90;;;;;;5032735;28;20041;-56
2022/04/10 02:25:56;;;;;;;17.80;13.50;;;22.50;99.90;;;;;;5033060;28;20021;-55
2022/04/10 02:28:21;;;;;;;17.40;12.88;;;22.50;99.90;;;;;;5031459;28;20036;-55
2022/04/10 02:30:47;;;;;;;18.80;12.82;;;22.50;99.90;;;;;;5032803;28;20056;-55
2022/04/10 02:33:13;;;;;;;16.40;12.77;;;22.40;99.90;;;;;;5032847;28;20033;-55
2022/04/10 02:35:40;;;;;;;19.30;13.07;;;22.40;99.90;;;;;;5032670;28;20060;-53
2022/04/10 02:38:06;;;;;;;18.95;13.38;;;22.40;99.90;;;;;;5032899;28;20017;-54
2022/04/10 02:40:32;;;;;;;16.38;12.88;;;22.40;99.90;;;;;;5032537;28;20393;-56
2022/04/10 02:42:58;;;;;;;18.38;13.27;;;22.40;99.90;;;;;;5032659;28;20024;-56
2022/04/10 02:45:24;;;;;;;17.48;13.10;;;22.40;99.90;;;;;;5032801;28;20064;-55
2022/04/10 02:47:50;;;;;;;17.10;13.32;;;22.40;99.90;;;;;;5032620;28;20426;-55
2022/04/10 02:50:16;;;;;;;17.25;12.13;;;22.40;99.90;;;;;;5032571;28;20025;-54
2022/04/10 02:52:42;;;;;;;20.13;13.85;;;22.40;99.90;;;;;;5032522;28;20105;-54
2022/04/10 02:55:08;;;;;;;18.85;13.30;;;22.40;99.90;;;;;;5032215;28;20112;-54
2022/04/10 02:57:35;;;;;;;18.00;13.90;;;22.40;99.90;;;;;;5032050;28;20040;-54
2022/04/10 03:00:03;;;;;;;17.53;12.83;;;22.40;99.90;;;;;;5032544;28;20133;-53
2022/04/10 03:02:29;;;;;;;17.38;13.30;;;22.40;99.90;;;;;;5032139;28;20029;-54
2022/04/10 03:04:55;;;;;;;19.45;13.63;;;22.40;99.90;;;;;;5030717;28;20083;-54
2022/04/10 03:07:20;;;;;;;18.05;13.95;;;22.40;99.90;;;;;;5032141;28;20041;-55
2022/04/10 03:09:47;;;;;;;17.95;13.05;;;22.40;99.90;;;;;;5032093;28;20029;-56
2022/04/10 03:12:13;;;;;;;18.98;14.07;;;22.40;99.90;;;;;;5032123;28;20108;-55
2022/04/10 03:14:38;;;;;;;20.90;15.02;;;22.40;99.90;;;;;;5031984;28;20044;-55
2022/04/10 03:17:04;;;;;;;19.75;14.43;;;22.40;99.90;;;;;;5031895;28;20022;-58
2022/04/10 03:19:30;;;;;;;20.52;15.07;;;22.30;99.90;;;;;;5031832;28;20026;-57
2022/04/10 03:21:56;;;;;;;19.45;14.02;;;22.30;99.90;;;;;;5031829;28;20025;-54
2022/04/10 03:24:22;;;;;;;20.48;15.77;;;22.30;99.90;;;;;;5031658;28;20123;-53
2022/04/10 03:26:48;;;;;;;22.15;16.15;;;22.30;99.90;;;;;;5030554;28;20049;-53
2022/04/10 03:29:14;;;;;;;23.05;15.80;;;22.30;99.90;;;;;;5031019;28;20033;-53
2022/04/10 03:31:40;;;;;;;20.05;15.20;;;22.30;99.90;;;;;;5031707;28;20022;-52
2022/04/10 03:34:05;;;;;;;22.35;16.25;;;22.30;99.90;;;;;;5030328;28;20080;-55
2022/04/10 03:36:32;;;;;;;21.95;16.60;;;22.30;99.90;;;;;;5031647;28;20037;-55
2022/04/10 03:38:57;;;;;;;21.42;16.75;;;22.30;99.90;;;;;;5030239;28;20460;-55
2022/04/10 03:41:23;;;;;;;23.13;16.80;;;22.30;99.90;;;;;;5031467;28;20101;-55
2022/04/10 03:43:49;;;;;;;22.52;16.98;;;22.30;99.90;;;;;;5031407;28;20043;-55
2022/04/10 03:46:15;;;;;;;22.42;16.60;;;22.30;99.90;;;;;;5031832;28;20026;-54
2022/04/10 03:48:41;;;;;;;24.73;17.27;;;22.20;99.90;;;;;;5031248;28;20021;-55
2022/04/10 03:51:06;;;;;;;23.58;17.50;;;22.30;99.90;;;;;;5031464;28;20401;-56
2022/04/10 03:53:35;;;;;;;25.70;17.65;;;22.20;99.90;;;;;;5031680;28;20480;-57
2022/04/10 03:56:02;;;;;;;23.40;17.38;;;22.20;99.90;;;;;;5031393;28;20029;-56
2022/04/10 03:58:27;;;;;;;22.63;16.60;;;22.20;99.90;;;;;;5031389;28;20021;-55
2022/04/10 04:00:53;;;;;;;23.27;16.10;;;22.20;99.90;;;;;;5031012;28;20056;-54
2022/04/10 04:03:19;;;;;;;24.35;17.52;;;22.20;99.90;;;;;;5031218;28;20279;-56
2022/04/10 04:05:45;;;;;;;25.00;17.10;;;22.20;99.90;;;;;;5031511;28;20101;-55
2022/04/10 04:08:10;;;;;;;23.25;17.08;;;22.20;99.90;;;;;;5031210;28;20385;-56
2022/04/10 04:10:36;;;;;;;23.95;17.30;;;22.20;99.90;;;;;;5029877;28;20029;-53
2022/04/10 04:13:02;;;;;;;21.65;16.45;;;22.20;99.90;;;;;;5031344;28;20029;-55
2022/04/10 04:15:28;;;;;;;22.35;16.70;;;22.20;99.90;;;;;;5031185;28;20104;-57
2022/04/10 04:17:54;;;;;;;24.35;17.42;;;22.20;99.90;;;;;;5031147;28;20021;-56
2022/04/10 04:20:20;;;;;;;22.13;16.55;;;22.20;99.90;;;;;;5031211;28;20495;-56
2022/04/10 04:22:48;;;;;;;21.77;15.75;;;22.20;99.90;;;;;;5031233;28;20033;-56
2022/04/10 04:25:14;;;;;;;23.02;16.38;;;22.20;99.90;;;;;;5031107;28;20052;-57
2022/04/10 04:27:40;;;;;;;24.83;16.60;;;22.20;99.90;;;;;;5031044;28;20022;-56
2022/04/10 04:30:07;;;;;;;21.08;15.75;;;22.10;99.90;;;;;;5030986;28;20021;-56
2022/04/10 04:32:33;;;;;;;23.77;16.70;;;22.10;99.90;;;;;;5031037;28;20025;-55
2022/04/10 04:34:59;;;;;;;20.35;15.40;;;22.10;99.90;;;;;;5030892;28;20026;-56
2022/04/10 04:37:24;;;;;;;21.27;14.30;;;22.10;99.90;;;;;;5030822;28;20026;-57
2022/04/10 04:39:50;;;;;;;19.88;14.90;;;22.10;99.90;;;;;;5031224;28;20014;-55
2022/04/10 04:42:16;;;;;;;19.00;14.63;;;22.10;99.90;;;;;;5034732;28;20029;-55
2022/04/10 04:44:42;;;;;;;20.17;15.20;;;22.10;99.90;;;;;;5034617;28;20047;-56
2022/04/10 04:47:08;;;;;;;20.60;15.25;;;22.10;99.90;;;;;;5034549;28;20036;-57
2022/04/10 04:49:33;;;;;;;22.50;15.95;;;22.10;99.90;;;;;;5034722;28;20068;-54
2022/04/10 04:51:59;;;;;;;20.95;15.45;;;22.10;99.90;;;;;;5034616;28;20022;-55
2022/04/10 04:54:25;;;;;;;17.98;13.65;;;22.10;99.90;;;;;;5034424;28;20029;-55
2022/04/10 04:56:51;;;;;;;19.58;14.60;;;22.10;99.90;;;;;;5034609;28;20048;-55
2022/04/10 04:59:17;;;;;;;18.25;13.68;;;22.10;99.90;;;;;;5034638;28;20098;-57
2022/04/10 05:01:43;;;;;;;19.40;14.93;;;22.10;99.90;;;;;;5034387;28;20041;-57
2022/04/10 05:04:09;;;;;;;17.98;13.52;;;22.00;99.90;;;;;;5034206;28;20030;-57
2022/04/10 05:06:36;;;;;;;17.20;13.30;;;22.10;99.90;;;;;;5034372;28;20328;-58
2022/04/10 05:09:02;;;;;;;18.80;13.50;;;22.00;99.90;;;;;;5034005;28;20505;-57
2022/04/10 05:11:27;;;;;;;18.67;13.95;;;22.00;99.90;;;;;;5034227;28;20457;-58
2022/04/10 05:13:53;;;;;;;20.17;13.60;;;22.00;99.90;;;;;;5034165;28;20047;-57
2022/04/10 05:16:19;;;;;;;17.70;13.20;;;22.00;99.90;;;;;;5034421;28;20017;-58
2022/04/10 05:18:45;;;;;;;18.83;12.75;;;22.00;99.90;;;;;;5034075;28;20052;-58
2022/04/10 05:21:10;;;;;;;16.17;12.10;;;22.00;99.90;;;;;;5034117;28;20028;-57
2022/04/10 05:23:36;;;;;;;19.40;12.75;;;22.00;99.90;;;;;;5033948;28;20033;-55
2022/04/10 05:26:02;;;;;;;18.63;13.07;;;22.00;99.90;;;;;;5033904;28;20041;-54
2022/04/10 05:28:30;;;;;;;16.30;11.82;;;22.00;99.90;;;;;;5034314;28;20075;-56
2022/04/10 05:30:56;;;;;;;19.25;12.15;;;22.00;99.90;;;;;;5033980;28;20060;-56
2022/04/10 05:33:21;;;;;;;17.30;12.85;;;22.00;99.90;;;;;;5034217;28;20061;-56
2022/04/10 05:35:47;;;;;;;15.90;12.18;;;22.00;99.90;;;;;;5032493;28;20022;-55
2022/04/10 05:38:13;;;;;;;18.55;11.98;;;22.00;99.90;;;;;;5033870;28;20025;-55
2022/04/10 05:40:39;;;;;;;16.92;11.10;;;22.00;99.90;;;;;;5033885;28;20060;-53
2022/04/10 05:43:05;;;;;;;15.43;12.02;;;22.00;99.90;;;;;;5033758;28;20064;-57
2022/04/10 05:45:30;;;;;;;15.10;11.07;;;22.00;99.90;;;;;;5033572;28;20116;-56
2022/04/10 05:47:56;;;;;;;15.30;11.82;;;22.00;99.90;;;;;;5033501;28;20360;-57
2022/04/10 05:50:22;;;;;;;15.20;11.95;;;22.00;99.90;;;;;;5033784;28;20078;-56
2022/04/10 05:52:50;;;;;;;14.95;10.98;;;21.90;99.90;;;;;;5032363;28;20029;-55
2022/04/10 05:55:21;;;;;;;15.10;10.50;;;21.90;99.90;;;;;;5033368;28;20030;-56
2022/04/10 05:57:47;;;;;;;14.63;10.82;;;21.90;99.90;;;;;;5033532;28;20024;-55
2022/04/10 06:00:15;;;;;;;13.75;9.73;;;22.00;99.90;;;;;;5033131;28;20132;-56
2022/04/10 06:02:42;;;;;;;14.68;10.80;;;21.90;99.90;;;;;;5033382;28;20472;-56
2022/04/10 06:05:08;;;;;;;15.95;11.77;;;21.90;99.90;;;;;;5033314;28;20045;-54
2022/04/10 06:07:35;;;;;;;14.33;10.80;;;21.90;99.90;;;;;;5033239;28;20032;-54
2022/04/10 06:10:01;;;;;;;13.60;10.05;;;21.90;99.90;;;;;;5033271;28;20034;-54
2022/04/10 06:12:27;;;;;;;12.75;9.82;;;21.90;99.90;;;;;;5033090;28;20057;-54
2022/04/10 06:14:54;;;;;;;13.23;10.35;;;21.90;99.90;;;;;;5033171;28;20456;-56
2022/04/10 06:17:20;;;;;;;13.57;9.85;;;21.90;99.90;;;;;;5033174;28;20064;-56
2022/04/10 06:19:46;;;;;;;14.10;10.35;;;21.90;99.90;;;;;;5031721;28;20038;-56
2022/04/10 06:22:12;;;;;;;14.30;10.43;;;22.00;99.90;;;;;;5033081;28;20025;-55
2022/04/10 06:24:38;;;;;;;12.25;8.95;;;21.90;99.90;;;;;;5032812;28;20045;-55
2022/04/10 06:27:04;;;;;;;14.38;10.02;;;22.00;99.90;;;;;;5032766;28;20021;-55
2022/04/10 06:29:29;;;;;;;12.63;9.77;;;21.90;99.90;;;;;;5032741;28;20110;-55
2022/04/10 06:31:55;;;;;;;12.30;8.88;;;21.90;99.90;;;;;;5033061;28;20498;-55
2022/04/10 06:34:21;;;;;;;11.93;9.07;;;21.90;99.90;;;;;;5031687;28;20397;-55
2022/04/10 06:36:47;;;;;;;12.98;9.63;;;22.00;99.90;;;;;;5032589;28;20060;-55
2022/04/10 06:39:15;;;;;;;11.98;8.98;;;22.00;99.90;;;;;;5032533;28;20052;-55
2022/04/10 06:41:42;;;;;;;11.15;8.55;;;22.00;99.90;;;;;;5032449;28;20072;-57
2022/04/10 06:44:09;;;;;;;11.48;8.48;;;22.00;99.90;;;;;;5032350;28;20034;-56
2022/04/10 06:46:35;;;;;;;11.52;8.65;;;22.00;99.90;;;;;;5032447;28;20037;-56
2022/04/10 06:49:01;;;;;;;12.55;9.18;;;22.00;99.90;;;;;;5031072;28;20026;-56
2022/04/10 06:51:27;;;;;;;11.35;8.23;;;22.00;99.90;;;;;;5032611;28;20088;-57
2022/04/10 06:53:52;;;;;;;10.25;8.00;;;22.00;99.90;;;;;;5032740;28;20449;-55
2022/04/10 06:56:18;;;;;;;12.18;8.57;;;22.00;99.90;;;;;;5032414;28;20381;-54
2022/04/10 06:58:44;;;;;;;12.65;9.02;;;22.00;99.90;;;;;;5032348;28;20495;-56
2022/04/10 07:01:10;;;;;;;11.82;9.20;;;22.00;99.90;;;;;;5032021;28;20045;-56
2022/04/10 07:03:36;;;;;;;10.90;8.05;;;22.00;99.90;;;;;;5031651;28;20030;-55
2022/04/10 07:06:02;;;;;;;12.48;7.90;;;22.00;99.90;;;;;;5031987;28;20025;-55
2022/04/10 07:08:28;;;;;;;13.05;8.30;;;22.10;99.90;;;;;;5032157;28;20411;-57
2022/04/10 07:10:54;;;;;;;9.50;6.95;;;22.10;99.90;;;;;;5032068;28;20036;-55
2022/04/10 07:13:21;;;;;;;11.93;8.80;;;22.10;99.90;;;;;;5030628;28;20459;-56
2022/04/10 07:15:52;;;;;;;9.65;7.13;;;22.10;99.90;;;;;;5031932;28;20469;-57
2022/04/10 07:18:18;;;;;;;11.38;7.47;;;22.10;99.90;;;;;;5032046;28;20033;-56
2022/04/10 07:20:45;;;;;;;9.85;7.38;;;22.10;99.90;;;;;;5031993;28;20388;-55
2022/04/10 07:25:55;;;;;;;10.18;7.00;;;22.10;99.90;;;;;;5031898;28;20444;-55
2022/04/10 07:28:21;;;;;;;9.95;7.20;;;22.10;99.90;;;;;;5031712;28;20029;-55
2022/04/10 07:30:47;;;;;;;8.95;7.03;;;22.10;99.90;;;;;;5031579;28;20641;-55
2022/04/10 07:33:13;;;;;;;8.52;6.85;;;22.10;99.90;;;;;;5031678;28;20104;-54
2022/04/10 07:35:40;;;;;;;9.13;7.18;;;22.10;99.90;;;;;;5031561;28;20096;-56
2022/04/10 07:38:07;;;;;;;10.80;7.25;;;22.10;99.90;;;;;;5031504;28;20037;-56
2022/04/10 07:40:34;;;;;;;10.07;7.25;;;22.10;99.90;;;;;;5031515;28;20033;-58
2022/04/10 07:43:00;;;;;;;10.40;8.50;;;22.20;99.90;;;;;;5031232;28;20022;-58
2022/04/10 07:48:10;;;;;;;12.05;9.40;;;22.10;99.90;;;;;;5031278;28;20060;-57
2022/04/10 07:50:36;;;;;;;13.57;10.32;;;22.20;99.90;;;;;;5031514;28;20033;-56
2022/04/10 07:53:02;;;;;;;12.65;8.60;;;22.20;99.90;;;;;;5031312;28;20473;-56
2022/04/10 07:55:29;;;;;;;11.00;8.85;;;22.10;99.90;;;;;;5031407;28;20029;-55
2022/04/10 07:57:55;;;;;;;11.13;9.20;;;22.20;99.90;;;;;;5031517;28;20026;-56
2022/04/10 08:00:21;;;;;;;11.68;8.68;;;22.20;99.90;;;;;;5031133;28;20076;-56
2022/04/10 08:02:50;;;;;;;11.98;8.23;;;22.20;99.90;;;;;;5031117;28;20470;-55
2022/04/10 08:05:18;;;;;;;11.10;8.60;;;22.10;99.90;;;;;;5031173;28;20068;-57
2022/04/10 08:07:44;;;;;;;11.07;8.27;;;22.20;99.90;;;;;;5029894;28;20056;-56
2022/04/10 08:10:14;;;;;;;11.30;8.53;;;22.20;99.90;;;;;;5031011;28;20033;-56
2022/04/10 08:12:41;;;;;;;11.93;9.70;;;22.20;99.90;;;;;;5031060;28;20482;-56
2022/04/10 08:15:08;;;;;;;8.70;7.45;;;22.20;99.90;;;;;;5031209;28;20029;-54
2022/04/10 08:17:34;;;;;;;9.07;7.35;;;22.20;99.90;;;;;;5035264;28;20021;-55
2022/04/10 08:20:03;;;;;;;9.30;7.15;;;22.30;99.90;;;;;;5035405;28;20029;-55
2022/04/10 08:22:30;;;;;;;9.93;7.53;;;22.30;99.90;;;;;;5035182;28;20513;-55
2022/04/10 08:25:01;;;;;;;10.27;7.55;;;22.30;99.90;;;;;;5034957;28;20029;-55
2022/04/10 08:27:27;;;;;;;11.63;8.02;;;22.30;99.90;;;;;;5035192;28;20033;-55
2022/04/10 08:29:53;;;;;;;9.63;7.82;;;22.30;99.90;;;;;;5035045;28;20025;-55
2022/04/10 08:32:19;;;;;;;10.27;8.32;;;22.30;99.90;;;;;;5035244;28;20021;-56
2022/04/10 08:34:44;;;;;;;9.50;7.70;;;22.30;99.90;;;;;;5034856;28;20029;-55
2022/04/10 08:37:10;;;;;;;9.65;7.75;;;22.30;99.90;;;;;;5034930;28;20025;-55
2022/04/10 08:39:36;;;;;;;10.85;8.50;;;22.30;99.90;;;;;;5034668;28;20056;-55
2022/04/10 08:42:04;;;;;;;9.75;7.63;;;22.30;99.90;;;;;;5035011;28;20384;-55
2022/04/10 08:44:30;;;;;;;11.02;8.13;;;22.30;99.90;;;;;;5034748;28;20045;-55
2022/04/10 08:46:57;;;;;;;9.85;6.95;;;22.30;99.90;;;;;;5033473;28;20022;-55
2022/04/10 08:49:31;;;;;;;8.88;6.72;;;22.30;99.90;;;;;;5034568;28;20083;-56
2022/04/10 08:51:59;;;;;;;9.50;7.10;;;22.40;99.90;;;;;;5034709;28;20036;-56
2022/04/10 08:54:26;;;;;;;12.60;6.97;;;22.40;99.90;;;;;;5034597;28;20512;-55
2022/04/10 08:56:52;;;;;;;10.82;6.82;;;22.30;99.90;;;;;;5034564;28;20117;-55
2022/04/10 08:59:20;;;;;;;11.13;8.02;;;22.40;99.90;;;;;;5034482;28;20025;-55
2022/04/10 09:01:50;;;;;;;8.23;6.90;;;22.40;99.90;;;;;;5034099;28;20067;-56
2022/04/10 09:04:16;;;;;;;10.18;7.15;;;22.40;99.90;;;;;;5032971;28;20073;-55
2022/04/10 09:07:05;;;;;;;9.30;7.13;;;22.40;99.90;;;;;;5034324;28;20074;-55
2022/04/10 09:09:31;;;;;;;10.85;7.22;;;22.40;99.90;;;;;;5034330;28;20096;-55
2022/04/10 09:11:58;;;;;;;10.38;6.80;;;22.50;99.90;;;;;;5034346;28;20021;-55
2022/04/10 09:14:35;;;;;;;10.93;6.85;;;22.40;99.90;;;;;;5034074;28;20018;-54
2022/04/10 09:17:11;;;;;;;10.25;7.25;;;22.40;99.90;;;;;;5034383;28;20033;-55
2022/04/10 09:19:39;;;;;;;12.50;7.15;;;22.40;99.90;;;;;;5034060;28;20018;-55
2022/04/10 09:22:30;;;;;;;8.07;6.68;;;22.40;99.90;;;;;;5033007;28;20025;-56
2022/04/10 09:25:16;;;;;;;9.40;7.45;;;22.40;99.90;;;;;;5033818;28;20037;-55
2022/04/10 09:27:46;;;;;;;10.88;7.72;;;22.50;99.90;;;;;;5033645;28;20096;-55
2022/04/10 09:30:18;;;;;;;9.15;6.63;;;22.50;99.90;;;;;;5033754;28;20099;-54
2022/04/10 09:32:47;;;;;;;10.48;7.32;;;22.50;99.90;;;;;;5034058;28;20045;-55
2022/04/10 09:35:15;;;;;;;11.52;7.28;;;22.50;99.90;;;;;;5033949;28;20373;-55
2022/04/10 09:37:47;;;;;;;10.35;7.13;;;22.50;99.90;;;;;;5032375;28;20029;-55
2022/04/10 09:40:24;;;;;;;12.00;7.40;;;22.50;99.90;;;;;;5033757;28;20080;-55
2022/04/10 09:42:58;;;;;;;11.30;7.72;;;22.50;99.90;;;;;;5033542;28;20413;-55
2022/04/10 09:45:43;;;;;;;12.77;7.75;;;22.50;99.90;;;;;;5033453;28;20136;-56
2022/04/10 09:48:29;;;;;;;9.55;6.95;;;22.50;99.90;;;;;;5033457;28;20021;-55
2022/04/10 09:51:02;;;;;;;10.77;7.30;;;22.60;99.90;;;;;;5033790;28;20319;-55
2022/04/10 09:53:28;;;;;;;8.48;6.88;;;22.60;99.90;;;;;;5033360;28;20469;-56
2022/04/10 09:55:57;;;;;;;11.73;7.53;;;22.60;99.90;;;;;;5033428;28;20096;-56
2022/04/10 09:58:24;;;;;;;9.52;7.30;;;22.70;99.90;;;;;;5033230;28;20029;-55
2022/04/10 10:00:54;;;;;;;9.65;7.00;;;22.70;99.90;;;;;;5033225;28;20052;-54
2022/04/10 10:03:21;;;;;;;7.93;6.65;;;22.70;99.90;;;;;;5033227;28;20048;-56
2022/04/10 10:05:52;;;;;;;8.85;7.15;;;22.70;99.90;;;;;;5033208;28;20059;-55
2022/04/10 10:08:19;;;;;;;9.68;6.80;;;22.70;99.90;;;;;;5033090;28;20036;-57
2022/04/10 10:10:45;;;;;;;9.52;7.90;;;22.70;99.90;;;;;;5033021;28;20029;-55
2022/04/10 10:13:14;;;;;;;8.93;6.45;;;22.80;99.90;;;;;;5033192;28;20033;-55
2022/04/10 10:15:42;;;;;;;11.48;7.15;;;22.80;99.90;;;;;;5033048;28;20025;-56
2022/04/10 10:18:12;;;;;;;9.45;6.75;;;22.80;99.90;;;;;;5033168;28;20098;-56
2022/04/10 10:20:42;;;;;;;9.80;6.90;;;22.90;99.90;;;;;;5031692;28;20087;-56
2022/04/10 10:23:10;;;;;;;8.00;6.78;;;22.90;99.90;;;;;;5032739;28;20033;-57
2022/04/10 10:25:40;;;;;;;10.35;6.47;;;22.90;99.90;;;;;;5032933;28;20087;-55
2022/04/10 10:28:24;;;;;;;8.35;6.22;;;22.90;99.90;;;;;;5032921;28;20018;-56
2022/04/10 10:31:14;;;;;;;9.63;6.68;;;22.90;99.90;;;;;;5032694;28;20539;-56
2022/04/10 10:33:58;;;;;;;8.00;6.22;;;22.90;99.90;;;;;;5032661;28;20492;-55
2022/04/10 10:36:27;;;;;;;8.65;6.43;;;23.00;99.90;;;;;;5032559;28;20033;-56
2022/04/10 10:38:56;;;;;;;9.63;6.38;;;23.00;99.90;;;;;;5031905;28;20040;-56
2022/04/10 10:41:21;;;;;;;9.25;7.10;;;23.00;99.90;;;;;;5032701;28;20097;-58
2022/04/10 10:43:48;;;;;;;9.35;6.43;;;23.00;99.90;;;;;;5032454;28;20116;-57
2022/04/10 10:46:20;;;;;;;10.23;6.35;;;23.10;99.90;;;;;;5032476;28;20100;-56
2022/04/10 10:48:46;;;;;;;7.70;5.80;;;23.00;99.90;;;;;;5032419;28;20021;-54
2022/04/10 10:51:12;;;;;;;8.55;6.20;;;23.10;99.90;;;;;;5032104;28;20021;-56
2022/04/10 10:53:58;;;;;;;7.95;5.80;;;23.10;99.90;;;;;;5032507;28;20075;-57
2022/04/10 10:56:36;;;;;;;9.50;5.88;;;23.10;99.90;;;;;;5032207;28;20038;-56
2022/04/10 10:59:43;;;;;;;9.38;6.10;;;23.10;99.90;;;;;;5032398;28;20041;-57
2022/04/10 11:02:17;;;;;;;8.43;5.87;;;23.20;99.90;;;;;;5032318;28;20095;-55
2022/04/10 11:04:50;;;;;;;9.75;6.40;;;23.20;99.90;;;;;;5032064;28;20068;-56
2022/04/10 11:07:19;;;;;;;7.78;5.78;;;23.20;99.90;;;;;;5032206;28;20025;-56
2022/04/10 11:09:54;;;;;;;8.43;5.78;;;23.20;99.90;;;;;;5032067;28;20485;-57
2022/04/10 11:12:21;;;;;;;9.23;6.05;;;23.20;99.90;;;;;;5031928;28;20025;-56
2022/04/10 11:14:50;;;;;;;7.70;5.53;;;23.30;99.90;;;;;;5031899;28;20021;-55
2022/04/10 11:17:21;;;;;;;8.85;6.00;;;23.30;99.90;;;;;;5032015;28;20026;-55
2022/04/10 11:19:51;;;;;;;11.18;6.75;;;23.20;99.90;;;;;;5031914;28;20101;-56
2022/04/10 11:22:22;;;;;;;7.82;6.38;;;23.30;99.90;;;;;;5031667;28;20029;-55
2022/04/10 11:24:53;;;;;;;8.13;5.97;;;23.30;99.90;;;;;;5031591;28;20385;-54
2022/04/10 11:27:51;;;;;;;9.32;5.78;;;23.30;99.90;;;;;;5031772;28;20026;-56
2022/04/10 11:30:33;;;;;;;9.13;6.22;;;23.30;99.90;;;;;;5031560;28;20079;-56
2022/04/10 11:32:59;;;;;;;8.13;6.18;;;23.30;99.90;;;;;;5031571;28;20026;-56
2022/04/10 11:35:28;;;;;;;8.23;5.78;;;23.30;99.90;;;;;;5031575;28;20381;-56
2022/04/10 11:37:58;;;;;;;8.40;6.55;;;23.40;99.90;;;;;;5031615;28;20021;-56
2022/04/10 11:40:33;;;;;;;8.20;5.93;;;23.40;99.90;;;;;;5031372;28;20053;-56
2022/04/10 11:43:00;;;;;;;7.40;5.68;;;23.40;99.90;;;;;;5031532;28;20040;-56
2022/04/10 11:45:28;;;;;;;8.65;6.13;;;23.40;99.90;;;;;;5031434;28;20074;-56
2022/04/10 11:47:54;;;;;;;6.72;5.55;;;23.40;99.90;;;;;;5031447;28;20021;-56
2022/04/10 11:50:23;;;;;;;8.45;6.00;;;23.40;99.90;;;;;;5030330;28;20037;-57
2022/04/10 11:52:57;;;;;;;8.90;6.22;;;23.40;99.90;;;;;;5031309;28;20033;-55
2022/04/10 11:55:29;;;;;;;8.50;5.88;;;23.40;99.90;;;;;;5031348;28;20060;-55
2022/04/10 11:57:56;;;;;;;10.02;6.10;;;23.40;99.90;;;;;;5031251;28;20481;-55
2022/04/10 12:00:22;;;;;;;7.65;5.60;;;23.50;99.90;;;;;;5031030;28;20497;-56
2022/04/10 12:02:53;;;;;;;7.75;5.43;;;23.50;99.90;;;;;;5031323;28;20068;-56
2022/04/10 12:05:32;;;;;;;7.13;5.53;;;23.50;99.90;;;;;;5031262;28;20029;-56
2022/04/10 12:08:02;;;;;;;5.85;5.05;;;23.50;99.90;;;;;;5031282;28;20029;-56
2022/04/10 12:10:29;;;;;;;7.13;5.05;;;23.50;99.90;;;;;;5031240;28;20049;-56
2022/04/10 12:12:56;;;;;;;8.13;5.63;;;23.50;99.90;;;;;;5031084;28;20017;-56
2022/04/10 12:15:22;;;;;;;8.13;5.40;;;23.50;99.90;;;;;;5031057;28;20473;-57
2022/04/10 12:17:49;;;;;;;6.13;5.35;;;23.50;99.90;;;;;;5030990;28;20501;-57
2022/04/10 12:20:15;;;;;;;7.13;5.15;;;23.50;99.90;;;;;;5031075;28;20029;-57
2022/04/10 12:22:42;;;;;;;5.43;4.78;;;23.60;99.90;;;;;;5031482;28;20121;-57
2022/04/10 12:25:11;;;;;;;10.53;5.30;;;23.60;99.90;;;;;;5031007;28;20049;-57
2022/04/10 12:27:38;;;;;;;6.95;5.35;;;23.60;99.90;;;;;;5030925;28;20496;-56
2022/04/10 12:30:11;;;;;;;6.90;5.50;;;23.60;99.90;;;;;;5031089;28;20029;-57
2022/04/10 12:32:37;;;;;;;7.72;5.07;;;23.60;99.90;;;;;;5031035;28;20473;-57
2022/04/10 12:35:11;;;;;;;7.28;5.13;;;23.60;99.90;;;;;;5031075;28;20435;-57
2022/04/10 12:37:45;;;;;;;6.57;5.53;;;23.60;99.90;;;;;;5030876;28;20022;-57
2022/04/10 12:40:11;;;;;;;8.43;5.47;;;23.60;99.90;;;;;;5031216;28;20416;-56
2022/04/10 12:42:42;;;;;;;7.47;5.82;;;23.70;99.90;;;;;;5031160;28;20032;-57
2022/04/10 12:45:09;;;;;;;6.68;5.57;;;23.70;99.90;;;;;;5030918;28;20069;-56